Terminal Aerodrome Forecast
Issued by NWS

Home | Current Version | Previous Version | Text Only | Print | Product List | Glossary Off
Versions: 1 2 3 4 5 6 7 8 9 10 11 12 13 14 15 16 17 18

000
FTUS43 KPAH 142200 AAA
TAFOWB
TAF AMD
KOWB 142219Z 1422/1518 31013G23KT 2SM -RA BR BKN007 OVC013
     FM142345 32013G22KT 4SM -RA BR BKN007 OVC015
     FM150600 32010G20KT P6SM BKN025
     FM151200 32010KT P6SM SKC=

USA.gov is the U.S. government's official web portal to all federal, state and local government web resources and services.